Ron Hull — WDD5737 — position and weather

sailwx.info

Track history (hours):
 
Tides and Currents Weather Stations Pressure Air Temp Water Temp Dewpoint Dewpoint Depression Visibility Wind Speed Wind Dir Waves Ship Positions

Ron Hull

Owner: Florida Marine, LLC, Mandeville, LA. More information available from US FCC via Universal Licensing System and Coast Guard Vessel Documentation Center.

Last reported at 2018-Feb-19 05:53 UTC. Time now 2018-Feb-19 07:57 UTC.
Position N 29°51' W 091°56'.

Length 27 m; draft 3.2 m.

Type: Towing. MMSI: 367162840.

Date/timePositionNaut miles runAvg speedWind from/ knotsBaromVisibWave heightAir tempDewpointWater temp
2018-Feb-19 05:53N 29°51' W 091°56'3 7.3
2018-Feb-19 05:30N 29°50' W 091°60'4 7.3
2018-Feb-19 05:00N 29°49' W 092°03'4 7.3
2018-Feb-19 04:31N 29°47' W 092°07'3 6.9
2018-Feb-19 04:01N 29°47' W 092°11'4 7.4
2018-Feb-19 03:31N 29°48' W 092°15'3 6.7
2018-Feb-19 03:00N 29°50' W 092°18'6 6.8
2018-Feb-19 02:08N 29°53' W 092°24'35 6.7
2018-Feb-18 20:51N 29°56' W 093°05'2 6.3
2018-Feb-18 20:30N 29°56' W 093°07'3 5.3
2018-Feb-18 20:01N 29°57' W 093°10'3 5.6
2018-Feb-18 19:31N 29°59' W 093°12'3 5.4
2018-Feb-18 19:00N 30°01' W 093°14'1 1.8
2018-Feb-18 18:30N 30°02' W 093°15'3 5.0
2018-Feb-18 18:00N 30°04' W 093°16'3 5.5
2018-Feb-18 17:30N 30°06' W 093°18'2 3.9
2018-Feb-18 17:00N 30°07' W 093°20'1 1.8
2018-Feb-18 16:30N 30°08' W 093°20'0 0.5
2018-Feb-18 16:00N 30°08' W 093°19'0 0.0
2018-Feb-18 15:30N 30°08' W 093°19'0 0.0
2018-Feb-18 15:00N 30°08' W 093°19'0 0.0
2018-Feb-18 14:30N 30°08' W 093°19'0 0.0
2018-Feb-18 14:00N 30°08' W 093°19'0 0.0
2018-Feb-18 13:30N 30°08' W 093°19'0 0.0
2018-Feb-18 13:00N 30°08' W 093°19'0 0.0
2018-Feb-18 12:30N 30°08' W 093°19'0 0.0
2018-Feb-18 12:00N 30°08' W 093°19'0 0.0
2018-Feb-18 11:30N 30°08' W 093°19'0 0.0
2018-Feb-18 11:00N 30°08' W 093°19'0 0.0
2018-Feb-18 10:30N 30°08' W 093°19'0 0.0
2018-Feb-18 10:00N 30°08' W 093°19'0 0.0
2018-Feb-18 09:30N 30°08' W 093°19'0 0.0
2018-Feb-18 09:00N 30°08' W 093°19'0 0.0
2018-Feb-18 08:30N 30°08' W 093°19'0 0.0
2018-Feb-18 08:00N 30°08' W 093°19'0 0.0
2018-Feb-18 07:30N 30°08' W 093°19'0 0.0
2018-Feb-18 07:00N 30°08' W 093°19'0 0.0
2018-Feb-18 06:30N 30°08' W 093°19'0 0.0
2018-Feb-18 06:00N 30°08' W 093°19'0 0.0
2018-Feb-18 05:30N 30°08' W 093°19'0 0.0
2018-Feb-18 04:57N 30°08' W 093°19'0 0.0
2018-Feb-18 04:27N 30°08' W 093°19'0 0.0
2018-Feb-18 03:57N 30°08' W 093°19'0 0.0
2018-Feb-18 03:30N 30°08' W 093°19'0 0.0
2018-Feb-18 03:00N 30°08' W 093°19'0 0.0
2018-Feb-18 02:30N 30°08' W 093°19'0 0.0
2018-Feb-18 02:00N 30°08' W 093°19'0 0.0
2018-Feb-18 01:30N 30°08' W 093°19'0 0.0
2018-Feb-18 01:00N 30°08' W 093°19'0 0.0
2018-Feb-18 00:30N 30°08' W 093°19'0 0.0
2018-Feb-18 00:00N 30°08' W 093°19'0 0.0
2018-Feb-17 23:30N 30°08' W 093°19'0 0.0
2018-Feb-17 23:00N 30°08' W 093°19'0 0.2
2018-Feb-17 22:30N 30°08' W 093°19'2 3.4
2018-Feb-17 22:00N 30°07' W 093°20'1 1.9
2018-Feb-17 21:26N 30°06' W 093°19'1 3.2
2018-Feb-17 21:00N 30°04' W 093°20'2 4.4
2018-Feb-17 20:30N 30°04' W 093°23'3 5.6
2018-Feb-17 20:00N 30°04' W 093°26'3 5.0
2018-Feb-17 19:30N 30°04' W 093°29'3 5.5
2018-Feb-17 19:00N 30°04' W 093°32'3 5.4
2018-Feb-17 18:30N 30°04' W 093°35'3 5.6
2018-Feb-17 18:00N 30°04' W 093°38'3 5.9
2018-Feb-17 17:30N 30°03' W 093°42'3 5.6
2018-Feb-17 17:00N 30°02' W 093°44'3 5.5
2018-Feb-17 16:31N 29°60' W 093°47'3 6.4
2018-Feb-17 16:00N 29°59' W 093°50'3 5.8
2018-Feb-17 15:30N 29°59' W 093°53'4 7.7
2018-Feb-17 15:00N 30°01' W 093°57'2 2.9
2018-Feb-17 14:28N 30°01' W 093°59'0 0.2
2018-Feb-17 13:58N 30°01' W 093°59'0 0.0
2018-Feb-17 13:28N 30°01' W 093°59'0 0.0
2018-Feb-17 12:58N 30°01' W 093°59'0 0.0
2018-Feb-17 12:28N 30°01' W 093°59'0 0.0
2018-Feb-17 11:58N 30°01' W 093°59'0 0.0
2018-Feb-17 11:28N 30°01' W 093°59'0 0.0
2018-Feb-17 10:58N 30°01' W 093°59'0 0.0
2018-Feb-17 10:28N 30°01' W 093°59'0 0.0
2018-Feb-17 09:58N 30°01' W 093°59'0 0.0
2018-Feb-17 09:28N 30°01' W 093°59'0 0.0
2018-Feb-17 08:58N 30°01' W 093°59'0 0.0
2018-Feb-17 08:28N 30°01' W 093°59'0 0.0
2018-Feb-17 07:58N 30°01' W 093°59'0 0.0
2018-Feb-17 07:28N 30°01' W 093°59'0 0.0
2018-Feb-17 06:58N 30°01' W 093°59'0 0.0
2018-Feb-17 06:28N 30°01' W 093°59'0 0.0
2018-Feb-17 05:58N 30°01' W 093°59'0 0.0
2018-Feb-17 05:28N 30°01' W 093°59'0 0.0
2018-Feb-17 04:58N 30°01' W 093°59'0 0.0
2018-Feb-17 04:28N 30°01' W 093°59'0 0.0
2018-Feb-17 03:58N 30°01' W 093°59'0 0.0
2018-Feb-17 03:28N 30°01' W 093°59'0 0.0
2018-Feb-17 02:58N 30°01' W 093°59'0 0.0
2018-Feb-17 02:28N 30°01' W 093°59'0 0.0
2018-Feb-17 01:58N 30°01' W 093°59'0 0.0
2018-Feb-17 01:28N 30°01' W 093°59'0 0.0
2018-Feb-17 00:58N 30°01' W 093°59'0 0.0
2018-Feb-17 00:28N 30°01' W 093°59'0 0.0
2018-Feb-16 23:58N 30°01' W 093°59'0 0.0
2018-Feb-16 23:28N 30°01' W 093°59'0 0.0
2018-Feb-16 22:58N 30°01' W 093°59'0 0.0
2018-Feb-16 22:28N 30°01' W 093°59'0 0.0
2018-Feb-16 21:58N 30°01' W 093°59'0 0.0
2018-Feb-16 21:28N 30°01' W 093°59'0 0.0
2018-Feb-16 20:58N 30°01' W 093°59'0 0.0
2018-Feb-16 20:28N 30°01' W 093°59'0 0.0
2018-Feb-16 19:58N 30°01' W 093°59'0 0.0
2018-Feb-16 19:28N 30°01' W 093°59'1 1.6
2018-Feb-16 19:00N 30°01' W 093°59'0 0.1
2018-Feb-16 18:30N 30°01' W 093°59'0 0.0
2018-Feb-16 18:00N 30°01' W 093°59'0 0.0
2018-Feb-16 17:30N 30°01' W 093°59'0 0.0
2018-Feb-16 17:00N 30°01' W 093°59'0 0.0
2018-Feb-16 16:24N 30°01' W 093°59'0 0.0
2018-Feb-16 16:00N 30°01' W 093°59'0 0.0
2018-Feb-16 15:30N 30°01' W 093°59'0 0.0
2018-Feb-16 15:00N 30°01' W 093°59'0 0.0
2018-Feb-16 14:30N 30°01' W 093°59'0 0.0
2018-Feb-16 14:00N 30°01' W 093°59'0 0.0
2018-Feb-16 13:30N 30°01' W 093°59'0 0.0
2018-Feb-16 13:00N 30°01' W 093°59'0 0.0
2018-Feb-16 12:30N 30°01' W 093°59'0 0.0
2018-Feb-16 12:00N 30°01' W 093°59'0 0.0
2018-Feb-16 11:30N 30°01' W 093°59'0 0.0
2018-Feb-16 11:00N 30°01' W 093°59'0 0.0
2018-Feb-16 10:30N 30°01' W 093°59'0 0.0
2018-Feb-16 10:00N 30°01' W 093°59'0 0.0
2018-Feb-16 09:30N 30°01' W 093°59'0 0.0
2018-Feb-16 09:00N 30°01' W 093°59'0 0.0
2018-Feb-16 08:27N 30°01' W 093°59'0 0.0
2018-Feb-16 08:00N 30°01' W 093°59'0 0.0
2018-Feb-16 07:30N 30°01' W 093°59'0 0.0
2018-Feb-16 07:00N 30°01' W 093°59'0 0.0
2018-Feb-16 06:30N 30°01' W 093°59'0 0.0
2018-Feb-16 06:00N 30°01' W 093°59'0 0.0
2018-Feb-16 05:30N 30°01' W 093°59'0 0.0
2018-Feb-16 04:54N 30°01' W 093°59'0 0.0
2018-Feb-16 04:30N 30°01' W 093°59'0 0.0
2018-Feb-16 04:00N 30°01' W 093°59'0 0.0
2018-Feb-16 03:30N 30°01' W 093°59'0 0.0
2018-Feb-16 03:00N 30°01' W 093°59'0 0.0
2018-Feb-16 02:24N 30°01' W 093°59'0 0.0
2018-Feb-16 02:00N 30°01' W 093°59'0 0.0
2018-Feb-16 01:30N 30°01' W 093°59'0 0.0
2018-Feb-16 01:00N 30°01' W 093°59'0 0.0
2018-Feb-16 00:30N 30°01' W 093°59'0 0.0
2018-Feb-16 00:00N 30°01' W 093°59'0 0.0
2018-Feb-15 23:28N 30°01' W 093°59'0 0.1
2018-Feb-15 22:58N 30°01' W 093°59'0 0.1
2018-Feb-15 22:29N 30°01' W 093°59'0 0.4
2018-Feb-15 22:00N 30°01' W 093°59'1 2.7
2018-Feb-15 21:31N 30°01' W 093°57'3 5.2
2018-Feb-15 21:00N 29°59' W 093°55'3 5.5
2018-Feb-15 20:30N 29°59' W 093°52'2 4.8
2018-Feb-15 20:00N 29°59' W 093°49'3 6.8
2018-Feb-15 19:30N 30°01' W 093°46'3 6.5
2018-Feb-15 19:00N 30°03' W 093°43'3 5.9
2018-Feb-15 18:29N 30°04' W 093°40'3 5.9
2018-Feb-15 18:00N 30°04' W 093°36'3 5.3
2018-Feb-15 17:30N 30°04' W 093°33'3 5.1
2018-Feb-15 17:00N 30°04' W 093°30'2 4.4
2018-Feb-15 16:30N 30°04' W 093°28'2 4.9
2018-Feb-15 16:00N 30°04' W 093°25'2 5.0
2018-Feb-15 15:31N 30°04' W 093°22'2 3.0
2018-Feb-15 14:59N 30°04' W 093°21'0 0.0
2018-Feb-15 14:29N 30°04' W 093°21'0 0.1
2018-Feb-15 13:59N 30°04' W 093°21'0 0.0
2018-Feb-15 13:29N 30°04' W 093°21'0 0.0
2018-Feb-15 12:59N 30°04' W 093°21'0 0.0
2018-Feb-15 12:29N 30°04' W 093°21'0 0.0
2018-Feb-15 11:59N 30°04' W 093°21'0 0.0
2018-Feb-15 11:29N 30°04' W 093°21'0 0.0
2018-Feb-15 10:59N 30°04' W 093°21'0 0.0
2018-Feb-15 10:29N 30°04' W 093°21'0 0.0
2018-Feb-15 09:59N 30°04' W 093°21'0 0.0
2018-Feb-15 09:29N 30°04' W 093°21'0 0.0
2018-Feb-15 08:59N 30°04' W 093°21'0 0.0
2018-Feb-15 08:29N 30°04' W 093°21'0 0.0
2018-Feb-15 07:59N 30°04' W 093°21'0 0.0
2018-Feb-15 07:29N 30°04' W 093°21'0 0.0
2018-Feb-15 06:59N 30°04' W 093°21'0 0.0
2018-Feb-15 06:20N 30°04' W 093°21'0 0.0
2018-Feb-15 05:59N 30°04' W 093°21'0 0.0
2018-Feb-15 05:29N 30°04' W 093°21'0 0.0
2018-Feb-15 04:56N 30°04' W 093°21'0 0.0
2018-Feb-15 04:29N 30°04' W 093°21'0 0.0
2018-Feb-15 03:59N 30°04' W 093°21'1 1.9
2018-Feb-15 03:30N 30°05' W 093°20'3 6.1
2018-Feb-15 03:00N 30°08' W 093°20'0 0.6
2018-Feb-15 02:17N 30°08' W 093°19'0 0.0
2018-Feb-15 01:59N 30°08' W 093°19'0 0.0
2018-Feb-15 01:29N 30°08' W 093°19'0 0.0
2018-Feb-15 00:59N 30°08' W 093°19'0 0.0
2018-Feb-15 00:29N 30°08' W 093°19'0 0.0
2018-Feb-14 23:59N 30°08' W 093°19'0 0.0
2018-Feb-14 23:29N 30°08' W 093°19'0 0.0
2018-Feb-14 22:59N 30°08' W 093°19'0 0.0
2018-Feb-14 22:29N 30°08' W 093°19'0 0.0
2018-Feb-14 21:59N 30°08' W 093°19'0 0.0
2018-Feb-14 21:29N 30°08' W 093°19'0 0.0
2018-Feb-14 20:59N 30°08' W 093°19'0 0.0
2018-Feb-14 20:29N 30°08' W 093°19'0 0.0
2018-Feb-14 19:59N 30°08' W 093°19'1 1.2
2018-Feb-14 19:31N 30°08' W 093°20'4 7.3
2018-Feb-14 19:00N 30°11' W 093°18'3 6.7
2018-Feb-14 18:31N 30°13' W 093°14'2 4.8
2018-Feb-14 18:01N 30°15' W 093°13'2 3.2
2018-Feb-14 17:28N 30°17' W 093°12'1 2.6
2018-Feb-14 16:56N 30°18' W 093°11'0 0.0
2018-Feb-14 16:29N 30°18' W 093°11'0 0.1
2018-Feb-14 15:59N 30°18' W 093°11'0 0.0
2018-Feb-14 15:20N 30°18' W 093°11'0 0.0
2018-Feb-14 14:47N 30°18' W 093°11'0 0.0
2018-Feb-14 14:29N 30°18' W 093°11'1 2.2
2018-Feb-14 13:57N 30°17' W 093°10'1 2.7
2018-Feb-14 13:28N 30°18' W 093°09'1 0.1
2018-Feb-13 17:56N 30°17' W 093°08'1 2.9
2018-Feb-13 17:30N 30°18' W 093°09'1 2.5
2018-Feb-13 16:56N 30°17' W 093°10'1 2.2
2018-Feb-13 16:30N 30°17' W 093°11'2 4.7
2018-Feb-13 15:59N 30°15' W 093°13'2 3.8
2018-Feb-13 15:31N 30°14' W 093°15'2 4.6
2018-Feb-13 15:00N 30°12' W 093°16'3 6.9
2018-Feb-13 14:30N 30°10' W 093°19'3 6.5
2018-Feb-13 14:00N 30°07' W 093°20'3 4.9
2018-Feb-13 13:29N 30°04' W 093°21'1 1.1
2018-Feb-13 13:00N 30°05' W 093°20'3 6.3
2018-Feb-13 12:29N 30°08' W 093°20'0 0.5
2018-Feb-13 11:49N 30°08' W 093°19'0 0.0
2018-Feb-13 11:25N 30°08' W 093°19'0 0.0
2018-Feb-13 10:48N 30°08' W 093°19'0 0.0
2018-Feb-13 10:25N 30°08' W 093°19'0 0.0
2018-Feb-13 10:00N 30°08' W 093°19'0 0.0
2018-Feb-13 09:30N 30°08' W 093°19'0 0.0
2018-Feb-13 08:58N 30°08' W 093°19'0 0.0
2018-Feb-13 08:25N 30°08' W 093°19'0 0.0
2018-Feb-13 07:55N 30°08' W 093°19'0 0.0
2018-Feb-13 07:28N 30°08' W 093°19'0 0.0
2018-Feb-13 06:57N 30°08' W 093°19'0 0.0
2018-Feb-13 06:25N 30°08' W 093°19'0 0.0
2018-Feb-13 05:55N 30°08' W 093°19'0 0.0
2018-Feb-13 05:27N 30°08' W 093°19'0 0.0
2018-Feb-13 04:57N 30°08' W 093°19'0 0.0
2018-Feb-13 04:30N 30°08' W 093°19'0 0.0
2018-Feb-13 04:00N 30°08' W 093°19'0 0.0
2018-Feb-13 03:31N 30°08' W 093°19'0 0.0
2018-Feb-13 03:00N 30°08' W 093°19'0 0.0
2018-Feb-13 02:30N 30°08' W 093°19'0 0.0
2018-Feb-13 02:00N 30°08' W 093°19'0 0.0
2018-Feb-13 01:31N 30°08' W 093°19'0 0.1
2018-Feb-13 01:00N 30°08' W 093°19'0 0.0
2018-Feb-13 00:28N 30°08' W 093°19'0 0.1
2018-Feb-13 00:00N 30°08' W 093°19'0 0.0
2018-Feb-12 23:30N 30°08' W 093°19'0 0.0
2018-Feb-12 23:00N 30°08' W 093°19'0 0.0
2018-Feb-12 22:30N 30°08' W 093°19'0 0.0
2018-Feb-12 22:00N 30°08' W 093°19'0 0.0
2018-Feb-12 21:24N 30°08' W 093°19'0 0.0
2018-Feb-12 20:54N 30°08' W 093°19'0 0.0
2018-Feb-12 20:24N 30°08' W 093°19'0 0.0
2018-Feb-12 20:00N 30°08' W 093°19'0 0.0
2018-Feb-12 19:24N 30°08' W 093°19'0 0.0
2018-Feb-12 19:00N 30°08' W 093°19'0 0.0
2018-Feb-12 18:30N 30°08' W 093°19'0 0.0
2018-Feb-12 17:57N 30°08' W 093°19'0 0.0
2018-Feb-12 17:27N 30°08' W 093°19'0 0.0
2018-Feb-12 17:00N 30°08' W 093°19'0 0.0
2018-Feb-12 16:24N 30°08' W 093°19'0 0.1
2018-Feb-12 15:58N 30°08' W 093°19'0 0.1
2018-Feb-12 15:16N 30°08' W 093°20'0 0.1
2018-Feb-12 14:43N 30°08' W 093°19'0 0.0
2018-Feb-12 13:07N 30°08' W 093°20'0 0.0
2018-Feb-12 12:55N 30°08' W 093°20'1 0.6
2018-Feb-12 11:33N 30°07' W 093°20'0 3.4
2018-Feb-12 11:27N 30°07' W 093°20'1 3.1
2018-Feb-12 10:59N 30°06' W 093°19'0 0.4
2018-Feb-12 09:50N 30°06' W 093°19'0 0.1
2018-Feb-12 09:20N 30°06' W 093°19'0 0.0
2018-Feb-12 08:38N 30°06' W 093°19'0 0.0
2018-Feb-12 08:02N 30°06' W 093°19'0 0.0
2018-Feb-12 07:53N 30°06' W 093°19'0 0.0
2018-Feb-12 07:20N 30°06' W 093°19'0 0.0
2018-Feb-12 06:56N 30°06' W 093°19'0 0.0
2018-Feb-12 06:11N 30°06' W 093°19'0 0.0
2018-Feb-12 05:47N 30°06' W 093°19'0 0.6
2018-Feb-12 05:29N 30°06' W 093°19'0 0.1
2018-Feb-12 04:41N 30°06' W 093°19'0 0.0
2018-Feb-12 04:14N 30°06' W 093°19'0 0.0
2018-Feb-12 03:53N 30°06' W 093°19'0 1.1
2018-Feb-12 03:30N 30°06' W 093°19'0 0.8
2018-Feb-12 02:59N 30°06' W 093°18'2 4.2
2018-Feb-12 02:27N 30°04' W 093°16'0 0.1
2018-Feb-12 02:00N 30°04' W 093°16'0 0.8
2018-Feb-12 01:30N 30°04' W 093°16'2 3.9
2018-Feb-12 01:00N 30°02' W 093°15'2 4.5
2018-Feb-12 00:30N 30°01' W 093°14'2 4.8
2018-Feb-12 00:00N 29°59' W 093°12'2 5.0
2018-Feb-11 23:30N 29°57' W 093°10'2 4.7
2018-Feb-11 23:00N 29°56' W 093°08'2 4.8
2018-Feb-11 22:30N 29°56' W 093°05'38 4.2
2018-Feb-11 13:35N 29°51' W 092°22'1 4.1
2018-Feb-11 13:22N 29°51' W 092°21'1 3.3
2018-Feb-11 13:00N 29°50' W 092°19'1 0.5
2018-Feb-11 11:18N 29°50' W 092°18'0 0.0
2018-Feb-11 10:55N 29°50' W 092°18'0 0.0
2018-Feb-11 10:24N 29°50' W 092°18'0 0.0
2018-Feb-11 09:57N 29°50' W 092°18'0 0.0
2018-Feb-11 09:25N 29°50' W 092°18'0 0.0
2018-Feb-11 08:51N 29°50' W 092°18'0 0.0
2018-Feb-11 08:28N 29°50' W 092°18'0 0.0
2018-Feb-11 08:01N 29°50' W 092°18'0 0.0
2018-Feb-11 07:31N 29°50' W 092°18'0 0.0
2018-Feb-11 05:55N 29°50' W 092°18'0 0.0
2018-Feb-11 05:00N 29°50' W 092°19'1 2.5
2018-Feb-11 04:30N 29°49' W 092°18'3 5.2
2018-Feb-11 04:00N 29°48' W 092°15'2 4.9
2018-Feb-11 03:30N 29°47' W 092°12'2 3.7
2018-Feb-11 03:00N 29°47' W 092°10'1 1.3
2018-Feb-11 02:28N 29°47' W 092°10'2 3.2
2018-Feb-11 02:00N 29°47' W 092°08'3 5.3
2018-Feb-11 01:30N 29°48' W 092°05'3 5.2
2018-Feb-11 01:00N 29°49' W 092°02'3 5.5
2018-Feb-11 00:30N 29°50' W 091°59'55 2.1
2018-Feb-09 21:52N 29°36' W 090°58'13 4.0
2018-Feb-09 18:30N 29°35' W 090°43'  
Track history (hours):
 
Tides and Currents Weather Stations Pressure Air Temp Water Temp Dewpoint Dewpoint Depression Visibility Wind Speed Wind Dir Waves Ship Positions

Ron Hull

Owner: Florida Marine, LLC, Mandeville, LA. More information available from US FCC via Universal Licensing System and Coast Guard Vessel Documentation Center.

Last reported at 2018-Feb-19 05:53 UTC. Time now 2018-Feb-19 07:57 UTC.
Position N 29°51' W 091°56'.

Length 27 m; draft 3.2 m.

Type: Towing. MMSI: 367162840.

Date/timePositionNaut miles runAvg speedWind from/ knotsBaromVisibWave heightAir tempDewpointWater temp
2018-Feb-19 05:53N 29°51' W 091°56'3 7.3
2018-Feb-19 05:30N 29°50' W 091°60'4 7.3
2018-Feb-19 05:00N 29°49' W 092°03'4 7.3
2018-Feb-19 04:31N 29°47' W 092°07'3 6.9
2018-Feb-19 04:01N 29°47' W 092°11'4 7.4
2018-Feb-19 03:31N 29°48' W 092°15'3 6.7
2018-Feb-19 03:00N 29°50' W 092°18'6 6.8
2018-Feb-19 02:08N 29°53' W 092°24'35 6.7
2018-Feb-18 20:51N 29°56' W 093°05'2 6.3
2018-Feb-18 20:30N 29°56' W 093°07'3 5.3
2018-Feb-18 20:01N 29°57' W 093°10'3 5.6
2018-Feb-18 19:31N 29°59' W 093°12'3 5.4
2018-Feb-18 19:00N 30°01' W 093°14'1 1.8
2018-Feb-18 18:30N 30°02' W 093°15'3 5.0
2018-Feb-18 18:00N 30°04' W 093°16'3 5.5
2018-Feb-18 17:30N 30°06' W 093°18'2 3.9
2018-Feb-18 17:00N 30°07' W 093°20'1 1.8
2018-Feb-18 16:30N 30°08' W 093°20'0 0.5
2018-Feb-18 16:00N 30°08' W 093°19'0 0.0
2018-Feb-18 15:30N 30°08' W 093°19'0 0.0
2018-Feb-18 15:00N 30°08' W 093°19'0 0.0
2018-Feb-18 14:30N 30°08' W 093°19'0 0.0
2018-Feb-18 14:00N 30°08' W 093°19'0 0.0
2018-Feb-18 13:30N 30°08' W 093°19'0 0.0
2018-Feb-18 13:00N 30°08' W 093°19'0 0.0
2018-Feb-18 12:30N 30°08' W 093°19'0 0.0
2018-Feb-18 12:00N 30°08' W 093°19'0 0.0
2018-Feb-18 11:30N 30°08' W 093°19'0 0.0
2018-Feb-18 11:00N 30°08' W 093°19'0 0.0
2018-Feb-18 10:30N 30°08' W 093°19'0 0.0
2018-Feb-18 10:00N 30°08' W 093°19'0 0.0
2018-Feb-18 09:30N 30°08' W 093°19'0 0.0
2018-Feb-18 09:00N 30°08' W 093°19'0 0.0
2018-Feb-18 08:30N 30°08' W 093°19'0 0.0
2018-Feb-18 08:00N 30°08' W 093°19'0 0.0
2018-Feb-18 07:30N 30°08' W 093°19'0 0.0
2018-Feb-18 07:00N 30°08' W 093°19'0 0.0
2018-Feb-18 06:30N 30°08' W 093°19'0 0.0
2018-Feb-18 06:00N 30°08' W 093°19'0 0.0
2018-Feb-18 05:30N 30°08' W 093°19'0 0.0
2018-Feb-18 04:57N 30°08' W 093°19'0 0.0
2018-Feb-18 04:27N 30°08' W 093°19'0 0.0
2018-Feb-18 03:57N 30°08' W 093°19'0 0.0
2018-Feb-18 03:30N 30°08' W 093°19'0 0.0
2018-Feb-18 03:00N 30°08' W 093°19'0 0.0
2018-Feb-18 02:30N 30°08' W 093°19'0 0.0
2018-Feb-18 02:00N 30°08' W 093°19'0 0.0
2018-Feb-18 01:30N 30°08' W 093°19'0 0.0
2018-Feb-18 01:00N 30°08' W 093°19'0 0.0
2018-Feb-18 00:30N 30°08' W 093°19'0 0.0
2018-Feb-18 00:00N 30°08' W 093°19'0 0.0
2018-Feb-17 23:30N 30°08' W 093°19'0 0.0
2018-Feb-17 23:00N 30°08' W 093°19'0 0.2
2018-Feb-17 22:30N 30°08' W 093°19'2 3.4
2018-Feb-17 22:00N 30°07' W 093°20'1 1.9
2018-Feb-17 21:26N 30°06' W 093°19'1 3.2
2018-Feb-17 21:00N 30°04' W 093°20'2 4.4
2018-Feb-17 20:30N 30°04' W 093°23'3 5.6
2018-Feb-17 20:00N 30°04' W 093°26'3 5.0
2018-Feb-17 19:30N 30°04' W 093°29'3 5.5
2018-Feb-17 19:00N 30°04' W 093°32'3 5.4
2018-Feb-17 18:30N 30°04' W 093°35'3 5.6
2018-Feb-17 18:00N 30°04' W 093°38'3 5.9
2018-Feb-17 17:30N 30°03' W 093°42'3 5.6
2018-Feb-17 17:00N 30°02' W 093°44'3 5.5
2018-Feb-17 16:31N 29°60' W 093°47'3 6.4
2018-Feb-17 16:00N 29°59' W 093°50'3 5.8
2018-Feb-17 15:30N 29°59' W 093°53'4 7.7
2018-Feb-17 15:00N 30°01' W 093°57'2 2.9
2018-Feb-17 14:28N 30°01' W 093°59'0 0.2
2018-Feb-17 13:58N 30°01' W 093°59'0 0.0
2018-Feb-17 13:28N 30°01' W 093°59'0 0.0
2018-Feb-17 12:58N 30°01' W 093°59'0 0.0
2018-Feb-17 12:28N 30°01' W 093°59'0 0.0
2018-Feb-17 11:58N 30°01' W 093°59'0 0.0
2018-Feb-17 11:28N 30°01' W 093°59'0 0.0
2018-Feb-17 10:58N 30°01' W 093°59'0 0.0
2018-Feb-17 10:28N 30°01' W 093°59'0 0.0
2018-Feb-17 09:58N 30°01' W 093°59'0 0.0
2018-Feb-17 09:28N 30°01' W 093°59'0 0.0
2018-Feb-17 08:58N 30°01' W 093°59'0 0.0
2018-Feb-17 08:28N 30°01' W 093°59'0 0.0
2018-Feb-17 07:58N 30°01' W 093°59'0 0.0
2018-Feb-17 07:28N 30°01' W 093°59'0 0.0
2018-Feb-17 06:58N 30°01' W 093°59'0 0.0
2018-Feb-17 06:28N 30°01' W 093°59'0 0.0
2018-Feb-17 05:58N 30°01' W 093°59'0 0.0
2018-Feb-17 05:28N 30°01' W 093°59'0 0.0
2018-Feb-17 04:58N 30°01' W 093°59'0 0.0
2018-Feb-17 04:28N 30°01' W 093°59'0 0.0
2018-Feb-17 03:58N 30°01' W 093°59'0 0.0
2018-Feb-17 03:28N 30°01' W 093°59'0 0.0
2018-Feb-17 02:58N 30°01' W 093°59'0 0.0
2018-Feb-17 02:28N 30°01' W 093°59'0 0.0
2018-Feb-17 01:58N 30°01' W 093°59'0 0.0
2018-Feb-17 01:28N 30°01' W 093°59'0 0.0
2018-Feb-17 00:58N 30°01' W 093°59'0 0.0
2018-Feb-17 00:28N 30°01' W 093°59'0 0.0
2018-Feb-16 23:58N 30°01' W 093°59'0 0.0
2018-Feb-16 23:28N 30°01' W 093°59'0 0.0
2018-Feb-16 22:58N 30°01' W 093°59'0 0.0
2018-Feb-16 22:28N 30°01' W 093°59'0 0.0
2018-Feb-16 21:58N 30°01' W 093°59'0 0.0
2018-Feb-16 21:28N 30°01' W 093°59'0 0.0
2018-Feb-16 20:58N 30°01' W 093°59'0 0.0
2018-Feb-16 20:28N 30°01' W 093°59'0 0.0
2018-Feb-16 19:58N 30°01' W 093°59'0 0.0
2018-Feb-16 19:28N 30°01' W 093°59'1 1.6
2018-Feb-16 19:00N 30°01' W 093°59'0 0.1
2018-Feb-16 18:30N 30°01' W 093°59'0 0.0
2018-Feb-16 18:00N 30°01' W 093°59'0 0.0
2018-Feb-16 17:30N 30°01' W 093°59'0 0.0
2018-Feb-16 17:00N 30°01' W 093°59'0 0.0
2018-Feb-16 16:24N 30°01' W 093°59'0 0.0
2018-Feb-16 16:00N 30°01' W 093°59'0 0.0
2018-Feb-16 15:30N 30°01' W 093°59'0 0.0
2018-Feb-16 15:00N 30°01' W 093°59'0 0.0
2018-Feb-16 14:30N 30°01' W 093°59'0 0.0
2018-Feb-16 14:00N 30°01' W 093°59'0 0.0
2018-Feb-16 13:30N 30°01' W 093°59'0 0.0
2018-Feb-16 13:00N 30°01' W 093°59'0 0.0
2018-Feb-16 12:30N 30°01' W 093°59'0 0.0
2018-Feb-16 12:00N 30°01' W 093°59'0 0.0
2018-Feb-16 11:30N 30°01' W 093°59'0 0.0
2018-Feb-16 11:00N 30°01' W 093°59'0 0.0
2018-Feb-16 10:30N 30°01' W 093°59'0 0.0
2018-Feb-16 10:00N 30°01' W 093°59'0 0.0
2018-Feb-16 09:30N 30°01' W 093°59'0 0.0
2018-Feb-16 09:00N 30°01' W 093°59'0 0.0
2018-Feb-16 08:27N 30°01' W 093°59'0 0.0
2018-Feb-16 08:00N 30°01' W 093°59'0 0.0
2018-Feb-16 07:30N 30°01' W 093°59'0 0.0
2018-Feb-16 07:00N 30°01' W 093°59'0 0.0
2018-Feb-16 06:30N 30°01' W 093°59'0 0.0
2018-Feb-16 06:00N 30°01' W 093°59'0 0.0
2018-Feb-16 05:30N 30°01' W 093°59'0 0.0
2018-Feb-16 04:54N 30°01' W 093°59'0 0.0
2018-Feb-16 04:30N 30°01' W 093°59'0 0.0
2018-Feb-16 04:00N 30°01' W 093°59'0 0.0
2018-Feb-16 03:30N 30°01' W 093°59'0 0.0
2018-Feb-16 03:00N 30°01' W 093°59'0 0.0
2018-Feb-16 02:24N 30°01' W 093°59'0 0.0
2018-Feb-16 02:00N 30°01' W 093°59'0 0.0
2018-Feb-16 01:30N 30°01' W 093°59'0 0.0
2018-Feb-16 01:00N 30°01' W 093°59'0 0.0
2018-Feb-16 00:30N 30°01' W 093°59'0 0.0
2018-Feb-16 00:00N 30°01' W 093°59'0 0.0
2018-Feb-15 23:28N 30°01' W 093°59'0 0.1
2018-Feb-15 22:58N 30°01' W 093°59'0 0.1
2018-Feb-15 22:29N 30°01' W 093°59'0 0.4
2018-Feb-15 22:00N 30°01' W 093°59'1 2.7
2018-Feb-15 21:31N 30°01' W 093°57'3 5.2
2018-Feb-15 21:00N 29°59' W 093°55'3 5.5
2018-Feb-15 20:30N 29°59' W 093°52'2 4.8
2018-Feb-15 20:00N 29°59' W 093°49'3 6.8
2018-Feb-15 19:30N 30°01' W 093°46'3 6.5
2018-Feb-15 19:00N 30°03' W 093°43'3 5.9
2018-Feb-15 18:29N 30°04' W 093°40'3 5.9
2018-Feb-15 18:00N 30°04' W 093°36'3 5.3
2018-Feb-15 17:30N 30°04' W 093°33'3 5.1
2018-Feb-15 17:00N 30°04' W 093°30'2 4.4
2018-Feb-15 16:30N 30°04' W 093°28'2 4.9
2018-Feb-15 16:00N 30°04' W 093°25'2 5.0
2018-Feb-15 15:31N 30°04' W 093°22'2 3.0
2018-Feb-15 14:59N 30°04' W 093°21'0 0.0
2018-Feb-15 14:29N 30°04' W 093°21'0 0.1
2018-Feb-15 13:59N 30°04' W 093°21'0 0.0
2018-Feb-15 13:29N 30°04' W 093°21'0 0.0
2018-Feb-15 12:59N 30°04' W 093°21'0 0.0
2018-Feb-15 12:29N 30°04' W 093°21'0 0.0
2018-Feb-15 11:59N 30°04' W 093°21'0 0.0
2018-Feb-15 11:29N 30°04' W 093°21'0 0.0
2018-Feb-15 10:59N 30°04' W 093°21'0 0.0
2018-Feb-15 10:29N 30°04' W 093°21'0 0.0
2018-Feb-15 09:59N 30°04' W 093°21'0 0.0
2018-Feb-15 09:29N 30°04' W 093°21'0 0.0
2018-Feb-15 08:59N 30°04' W 093°21'0 0.0
2018-Feb-15 08:29N 30°04' W 093°21'0 0.0
2018-Feb-15 07:59N 30°04' W 093°21'0 0.0
2018-Feb-15 07:29N 30°04' W 093°21'0 0.0
2018-Feb-15 06:59N 30°04' W 093°21'0 0.0
2018-Feb-15 06:20N 30°04' W 093°21'0 0.0
2018-Feb-15 05:59N 30°04' W 093°21'0 0.0
2018-Feb-15 05:29N 30°04' W 093°21'0 0.0
2018-Feb-15 04:56N 30°04' W 093°21'0 0.0
2018-Feb-15 04:29N 30°04' W 093°21'0 0.0
2018-Feb-15 03:59N 30°04' W 093°21'1 1.9
2018-Feb-15 03:30N 30°05' W 093°20'3 6.1
2018-Feb-15 03:00N 30°08' W 093°20'0 0.6
2018-Feb-15 02:17N 30°08' W 093°19'0 0.0
2018-Feb-15 01:59N 30°08' W 093°19'0 0.0
2018-Feb-15 01:29N 30°08' W 093°19'0 0.0
2018-Feb-15 00:59N 30°08' W 093°19'0 0.0
2018-Feb-15 00:29N 30°08' W 093°19'0 0.0
2018-Feb-14 23:59N 30°08' W 093°19'0 0.0
2018-Feb-14 23:29N 30°08' W 093°19'0 0.0
2018-Feb-14 22:59N 30°08' W 093°19'0 0.0
2018-Feb-14 22:29N 30°08' W 093°19'0 0.0
2018-Feb-14 21:59N 30°08' W 093°19'0 0.0
2018-Feb-14 21:29N 30°08' W 093°19'0 0.0
2018-Feb-14 20:59N 30°08' W 093°19'0 0.0
2018-Feb-14 20:29N 30°08' W 093°19'0 0.0
2018-Feb-14 19:59N 30°08' W 093°19'1 1.2
2018-Feb-14 19:31N 30°08' W 093°20'4 7.3
2018-Feb-14 19:00N 30°11' W 093°18'3 6.7
2018-Feb-14 18:31N 30°13' W 093°14'2 4.8
2018-Feb-14 18:01N 30°15' W 093°13'2 3.2
2018-Feb-14 17:28N 30°17' W 093°12'1 2.6
2018-Feb-14 16:56N 30°18' W 093°11'0 0.0
2018-Feb-14 16:29N 30°18' W 093°11'0 0.1
2018-Feb-14 15:59N 30°18' W 093°11'0 0.0
2018-Feb-14 15:20N 30°18' W 093°11'0 0.0
2018-Feb-14 14:47N 30°18' W 093°11'0 0.0
2018-Feb-14 14:29N 30°18' W 093°11'1 2.2
2018-Feb-14 13:57N 30°17' W 093°10'1 2.7
2018-Feb-14 13:28N 30°18' W 093°09'1 0.1
2018-Feb-13 17:56N 30°17' W 093°08'1 2.9
2018-Feb-13 17:30N 30°18' W 093°09'1 2.5
2018-Feb-13 16:56N 30°17' W 093°10'1 2.2
2018-Feb-13 16:30N 30°17' W 093°11'2 4.7
2018-Feb-13 15:59N 30°15' W 093°13'2 3.8
2018-Feb-13 15:31N 30°14' W 093°15'2 4.6
2018-Feb-13 15:00N 30°12' W 093°16'3 6.9
2018-Feb-13 14:30N 30°10' W 093°19'3 6.5
2018-Feb-13 14:00N 30°07' W 093°20'3 4.9
2018-Feb-13 13:29N 30°04' W 093°21'1 1.1
2018-Feb-13 13:00N 30°05' W 093°20'3 6.3
2018-Feb-13 12:29N 30°08' W 093°20'0 0.5
2018-Feb-13 11:49N 30°08' W 093°19'0 0.0
2018-Feb-13 11:25N 30°08' W 093°19'0 0.0
2018-Feb-13 10:48N 30°08' W 093°19'0 0.0
2018-Feb-13 10:25N 30°08' W 093°19'0 0.0
2018-Feb-13 10:00N 30°08' W 093°19'0 0.0
2018-Feb-13 09:30N 30°08' W 093°19'0 0.0
2018-Feb-13 08:58N 30°08' W 093°19'0 0.0
2018-Feb-13 08:25N 30°08' W 093°19'0 0.0
2018-Feb-13 07:55N 30°08' W 093°19'0 0.0
2018-Feb-13 07:28N 30°08' W 093°19'0 0.0
2018-Feb-13 06:57N 30°08' W 093°19'0 0.0
2018-Feb-13 06:25N 30°08' W 093°19'0 0.0
2018-Feb-13 05:55N 30°08' W 093°19'0 0.0
2018-Feb-13 05:27N 30°08' W 093°19'0 0.0
2018-Feb-13 04:57N 30°08' W 093°19'0 0.0
2018-Feb-13 04:30N 30°08' W 093°19'0 0.0
2018-Feb-13 04:00N 30°08' W 093°19'0 0.0
2018-Feb-13 03:31N 30°08' W 093°19'0 0.0
2018-Feb-13 03:00N 30°08' W 093°19'0 0.0
2018-Feb-13 02:30N 30°08' W 093°19'0 0.0
2018-Feb-13 02:00N 30°08' W 093°19'0 0.0
2018-Feb-13 01:31N 30°08' W 093°19'0 0.1
2018-Feb-13 01:00N 30°08' W 093°19'0 0.0
2018-Feb-13 00:28N 30°08' W 093°19'0 0.1
2018-Feb-13 00:00N 30°08' W 093°19'0 0.0
2018-Feb-12 23:30N 30°08' W 093°19'0 0.0
2018-Feb-12 23:00N 30°08' W 093°19'0 0.0
2018-Feb-12 22:30N 30°08' W 093°19'0 0.0
2018-Feb-12 22:00N 30°08' W 093°19'0 0.0
2018-Feb-12 21:24N 30°08' W 093°19'0 0.0
2018-Feb-12 20:54N 30°08' W 093°19'0 0.0
2018-Feb-12 20:24N 30°08' W 093°19'0 0.0
2018-Feb-12 20:00N 30°08' W 093°19'0 0.0
2018-Feb-12 19:24N 30°08' W 093°19'0 0.0
2018-Feb-12 19:00N 30°08' W 093°19'0 0.0
2018-Feb-12 18:30N 30°08' W 093°19'0 0.0
2018-Feb-12 17:57N 30°08' W 093°19'0 0.0
2018-Feb-12 17:27N 30°08' W 093°19'0 0.0
2018-Feb-12 17:00N 30°08' W 093°19'0 0.0
2018-Feb-12 16:24N 30°08' W 093°19'0 0.1
2018-Feb-12 15:58N 30°08' W 093°19'0 0.1
2018-Feb-12 15:16N 30°08' W 093°20'0 0.1
2018-Feb-12 14:43N 30°08' W 093°19'0 0.0
2018-Feb-12 13:07N 30°08' W 093°20'0 0.0
2018-Feb-12 12:55N 30°08' W 093°20'1 0.6
2018-Feb-12 11:33N 30°07' W 093°20'0 3.4
2018-Feb-12 11:27N 30°07' W 093°20'1 3.1
2018-Feb-12 10:59N 30°06' W 093°19'0 0.4
2018-Feb-12 09:50N 30°06' W 093°19'0 0.1
2018-Feb-12 09:20N 30°06' W 093°19'0 0.0
2018-Feb-12 08:38N 30°06' W 093°19'0 0.0
2018-Feb-12 08:02N 30°06' W 093°19'0 0.0
2018-Feb-12 07:53N 30°06' W 093°19'0 0.0
2018-Feb-12 07:20N 30°06' W 093°19'0 0.0
2018-Feb-12 06:56N 30°06' W 093°19'0 0.0
2018-Feb-12 06:11N 30°06' W 093°19'0 0.0
2018-Feb-12 05:47N 30°06' W 093°19'0 0.6
2018-Feb-12 05:29N 30°06' W 093°19'0 0.1
2018-Feb-12 04:41N 30°06' W 093°19'0 0.0
2018-Feb-12 04:14N 30°06' W 093°19'0 0.0
2018-Feb-12 03:53N 30°06' W 093°19'0 1.1
2018-Feb-12 03:30N 30°06' W 093°19'0 0.8
2018-Feb-12 02:59N 30°06' W 093°18'2 4.2
2018-Feb-12 02:27N 30°04' W 093°16'0 0.1
2018-Feb-12 02:00N 30°04' W 093°16'0 0.8
2018-Feb-12 01:30N 30°04' W 093°16'2 3.9
2018-Feb-12 01:00N 30°02' W 093°15'2 4.5
2018-Feb-12 00:30N 30°01' W 093°14'2 4.8
2018-Feb-12 00:00N 29°59' W 093°12'2 5.0
2018-Feb-11 23:30N 29°57' W 093°10'2 4.7
2018-Feb-11 23:00N 29°56' W 093°08'2 4.8
2018-Feb-11 22:30N 29°56' W 093°05'38 4.2
2018-Feb-11 13:35N 29°51' W 092°22'1 4.1
2018-Feb-11 13:22N 29°51' W 092°21'1 3.3
2018-Feb-11 13:00N 29°50' W 092°19'1 0.5
2018-Feb-11 11:18N 29°50' W 092°18'0 0.0
2018-Feb-11 10:55N 29°50' W 092°18'0 0.0
2018-Feb-11 10:24N 29°50' W 092°18'0 0.0
2018-Feb-11 09:57N 29°50' W 092°18'0 0.0
2018-Feb-11 09:25N 29°50' W 092°18'0 0.0
2018-Feb-11 08:51N 29°50' W 092°18'0 0.0
2018-Feb-11 08:28N 29°50' W 092°18'0 0.0
2018-Feb-11 08:01N 29°50' W 092°18'0 0.0
2018-Feb-11 07:31N 29°50' W 092°18'0 0.0
2018-Feb-11 05:55N 29°50' W 092°18'0 0.0
2018-Feb-11 05:00N 29°50' W 092°19'1 2.5
2018-Feb-11 04:30N 29°49' W 092°18'3 5.2
2018-Feb-11 04:00N 29°48' W 092°15'2 4.9
2018-Feb-11 03:30N 29°47' W 092°12'2 3.7
2018-Feb-11 03:00N 29°47' W 092°10'1 1.3
2018-Feb-11 02:28N 29°47' W 092°10'2 3.2
2018-Feb-11 02:00N 29°47' W 092°08'3 5.3
2018-Feb-11 01:30N 29°48' W 092°05'3 5.2
2018-Feb-11 01:00N 29°49' W 092°02'3 5.5
2018-Feb-11 00:30N 29°50' W 091°59'55 2.1
2018-Feb-09 21:52N 29°36' W 090°58'13 4.0
2018-Feb-09 18:30N 29°35' W 090°43'  

Dump ship's entire track history